Terminal Aerodrome Forecast
Issued by NWS

Home | Current Version | Previous Version | Text Only | Print | Product List | Glossary On
Versions: 1 2 3 4 5 6 7 8 9 10 11 12 13 14 15 16 17 18 19 20 21 22 23 24 25 26 27
000
FTAK31 PANC 282334
TAFAHO
TAF
PAHO 282334Z 2900/2924 06010KT P6SM OVC060
     FM290400 04008KT P6SM SCT050 BKN080
     FM291400 05006KT P6SM VCSH OVC045
     FM292200 10010KT 5SM -SHRA BR BKN025 OVC035=

USA.gov is the U.S. government's official web portal to all federal, state and local government web resources and services.